sensor_id;sensor_type;location;lat;lon;timestamp;P1;durP1;ratioP1;P2;durP2;ratioP2
4915;SDS011;70796;52.406;13.230;2024-02-23T00:02:10;1.33;;;1.23;;
4915;SDS011;70796;52.406;13.230;2024-02-23T00:04:36;1.00;;;1.00;;
4915;SDS011;70796;52.406;13.230;2024-02-23T00:07:02;1.07;;;1.07;;
4915;SDS011;70796;52.406;13.230;2024-02-23T00:09:29;1.20;;;1.13;;
4915;SDS011;70796;52.406;13.230;2024-02-23T00:11:56;1.07;;;0.90;;
4915;SDS011;70796;52.406;13.230;2024-02-23T00:14:23;1.00;;;1.00;;
4915;SDS011;70796;52.406;13.230;2024-02-23T00:16:49;1.20;;;1.10;;
4915;SDS011;70796;52.406;13.230;2024-02-23T00:19:15;0.97;;;0.90;;
4915;SDS011;70796;52.406;13.230;2024-02-23T00:21:46;1.47;;;1.00;;
4915;SDS011;70796;52.406;13.230;2024-02-23T00:24:16;1.33;;;1.20;;
4915;SDS011;70796;52.406;13.230;2024-02-23T00:26:43;0.90;;;0.90;;
4915;SDS011;70796;52.406;13.230;2024-02-23T00:29:10;1.00;;;1.00;;
4915;SDS011;70796;52.406;13.230;2024-02-23T00:31:38;1.10;;;1.00;;
4915;SDS011;70796;52.406;13.230;2024-02-23T00:34:07;1.07;;;1.00;;
4915;SDS011;70796;52.406;13.230;2024-02-23T00:36:39;2.27;;;1.20;;
4915;SDS011;70796;52.406;13.230;2024-02-23T00:39:07;1.20;;;1.10;;
4915;SDS011;70796;52.406;13.230;2024-02-23T00:41:34;0.90;;;0.90;;
4915;SDS011;70796;52.406;13.230;2024-02-23T00:44:04;1.00;;;1.00;;
4915;SDS011;70796;52.406;13.230;2024-02-23T00:46:31;0.90;;;0.90;;
4915;SDS011;70796;52.406;13.230;2024-02-23T00:48:57;2.30;;;0.93;;
4915;SDS011;70796;52.406;13.230;2024-02-23T00:51:24;1.00;;;1.00;;
4915;SDS011;70796;52.406;13.230;2024-02-23T00:53:51;1.17;;;1.07;;
4915;SDS011;70796;52.406;13.230;2024-02-23T00:56:18;1.23;;;1.13;;
4915;SDS011;70796;52.406;13.230;2024-02-23T00:58:48;1.20;;;1.00;;
4915;SDS011;70796;52.406;13.230;2024-02-23T01:01:15;1.07;;;1.07;;
4915;SDS011;70796;52.406;13.230;2024-02-23T01:03:42;1.30;;;1.20;;
4915;SDS011;70796;52.406;13.230;2024-02-23T01:06:09;1.10;;;1.00;;
4915;SDS011;70796;52.406;13.230;2024-02-23T01:08:36;1.63;;;1.13;;
4915;SDS011;70796;52.406;13.230;2024-02-23T01:11:03;2.30;;;1.27;;
4915;SDS011;70796;52.406;13.230;2024-02-23T01:13:30;1.37;;;1.20;;
4915;SDS011;70796;52.406;13.230;2024-02-23T01:15:56;2.50;;;1.23;;
4915;SDS011;70796;52.406;13.230;2024-02-23T01:18:23;1.47;;;1.37;;
4915;SDS011;70796;52.406;13.230;2024-02-23T01:20:50;1.57;;;1.30;;
4915;SDS011;70796;52.406;13.230;2024-02-23T01:23:17;1.97;;;1.20;;
4915;SDS011;70796;52.406;13.230;2024-02-23T01:25:43;1.10;;;1.10;;
4915;SDS011;70796;52.406;13.230;2024-02-23T01:28:10;1.43;;;1.33;;
4915;SDS011;70796;52.406;13.230;2024-02-23T01:30:37;2.00;;;1.07;;
4915;SDS011;70796;52.406;13.230;2024-02-23T01:33:04;1.37;;;1.10;;
4915;SDS011;70796;52.406;13.230;2024-02-23T01:38:31;2.50;;;1.17;;
4915;SDS011;70796;52.406;13.230;2024-02-23T01:40:59;2.10;;;1.20;;
4915;SDS011;70796;52.406;13.230;2024-02-23T01:43:26;1.23;;;1.00;;
4915;SDS011;70796;52.406;13.230;2024-02-23T01:45:53;1.13;;;1.03;;
4915;SDS011;70796;52.406;13.230;2024-02-23T01:48:20;1.30;;;1.20;;
4915;SDS011;70796;52.406;13.230;2024-02-23T01:50:47;2.80;;;1.20;;
4915;SDS011;70796;52.406;13.230;2024-02-23T01:53:14;1.37;;;1.27;;
4915;SDS011;70796;52.406;13.230;2024-02-23T01:55:40;1.33;;;0.83;;
4915;SDS011;70796;52.406;13.230;2024-02-23T01:58:08;0.90;;;0.90;;
4915;SDS011;70796;52.406;13.230;2024-02-23T02:00:35;1.17;;;0.90;;
4915;SDS011;70796;52.406;13.230;2024-02-23T02:03:02;1.10;;;1.00;;
4915;SDS011;70796;52.406;13.230;2024-02-23T02:05:29;1.17;;;1.10;;
4915;SDS011;70796;52.406;13.230;2024-02-23T02:07:56;0.80;;;0.80;;
4915;SDS011;70796;52.406;13.230;2024-02-23T02:10:26;0.83;;;0.77;;
4915;SDS011;70796;52.406;13.230;2024-02-23T02:12:53;1.10;;;1.00;;
4915;SDS011;70796;52.406;13.230;2024-02-23T02:15:19;1.47;;;0.90;;
4915;SDS011;70796;52.406;13.230;2024-02-23T02:17:48;0.60;;;0.60;;
4915;SDS011;70796;52.406;13.230;2024-02-23T02:20:15;0.77;;;0.67;;
4915;SDS011;70796;52.406;13.230;2024-02-23T02:22:45;2.10;;;0.90;;
4915;SDS011;70796;52.406;13.230;2024-02-23T02:25:13;2.10;;;0.83;;
4915;SDS011;70796;52.406;13.230;2024-02-23T02:27:41;2.60;;;0.70;;
4915;SDS011;70796;52.406;13.230;2024-02-23T02:30:07;4.63;;;0.73;;
4915;SDS011;70796;52.406;13.230;2024-02-23T02:32:35;1.20;;;0.77;;
4915;SDS011;70796;52.406;13.230;2024-02-23T02:35:03;0.77;;;0.60;;
4915;SDS011;70796;52.406;13.230;2024-02-23T02:37:29;3.47;;;1.00;;
4915;SDS011;70796;52.406;13.230;2024-02-23T02:39:56;1.63;;;0.80;;
4915;SDS011;70796;52.406;13.230;2024-02-23T02:42:23;1.37;;;0.70;;
4915;SDS011;70796;52.406;13.230;2024-02-23T02:44:49;3.23;;;0.70;;
4915;SDS011;70796;52.406;13.230;2024-02-23T02:47:16;0.73;;;0.70;;
4915;SDS011;70796;52.406;13.230;2024-02-23T02:49:42;2.00;;;0.73;;
4915;SDS011;70796;52.406;13.230;2024-02-23T02:52:08;4.47;;;0.80;;
4915;SDS011;70796;52.406;13.230;2024-02-23T02:54:35;1.73;;;0.90;;
4915;SDS011;70796;52.406;13.230;2024-02-23T02:57:01;2.10;;;0.70;;
4915;SDS011;70796;52.406;13.230;2024-02-23T02:59:28;0.83;;;0.70;;
4915;SDS011;70796;52.406;13.230;2024-02-23T03:01:54;2.93;;;0.97;;
4915;SDS011;70796;52.406;13.230;2024-02-23T03:04:21;1.33;;;0.90;;
4915;SDS011;70796;52.406;13.230;2024-02-23T03:06:48;0.80;;;0.60;;
4915;SDS011;70796;52.406;13.230;2024-02-23T03:09:14;1.10;;;0.73;;
4915;SDS011;70796;52.406;13.230;2024-02-23T03:11:40;1.27;;;0.70;;
4915;SDS011;70796;52.406;13.230;2024-02-23T03:14:07;2.73;;;0.70;;
4915;SDS011;70796;52.406;13.230;2024-02-23T03:16:34;2.37;;;0.90;;
4915;SDS011;70796;52.406;13.230;2024-02-23T03:19:03;0.80;;;0.63;;
4915;SDS011;70796;52.406;13.230;2024-02-23T03:21:30;0.70;;;0.70;;
4915;SDS011;70796;52.406;13.230;2024-02-23T03:23:57;3.17;;;0.77;;
4915;SDS011;70796;52.406;13.230;2024-02-23T03:26:23;1.50;;;0.70;;
4915;SDS011;70796;52.406;13.230;2024-02-23T03:28:50;1.17;;;0.87;;
4915;SDS011;70796;52.406;13.230;2024-02-23T03:31:16;1.77;;;0.70;;
4915;SDS011;70796;52.406;13.230;2024-02-23T03:33:43;0.77;;;0.70;;
4915;SDS011;70796;52.406;13.230;2024-02-23T03:36:13;1.57;;;0.77;;
4915;SDS011;70796;52.406;13.230;2024-02-23T03:38:39;2.50;;;0.70;;
4915;SDS011;70796;52.406;13.230;2024-02-23T03:41:06;1.50;;;0.70;;
4915;SDS011;70796;52.406;13.230;2024-02-23T03:43:32;2.33;;;0.90;;
4915;SDS011;70796;52.406;13.230;2024-02-23T03:46:00;1.47;;;0.67;;
4915;SDS011;70796;52.406;13.230;2024-02-23T03:48:26;2.90;;;0.60;;
4915;SDS011;70796;52.406;13.230;2024-02-23T03:50:53;0.90;;;0.60;;
4915;SDS011;70796;52.406;13.230;2024-02-23T03:53:20;0.73;;;0.73;;
4915;SDS011;70796;52.406;13.230;2024-02-23T03:55:47;3.00;;;0.77;;
4915;SDS011;70796;52.406;13.230;2024-02-23T03:58:13;4.07;;;0.70;;
4915;SDS011;70796;52.406;13.230;2024-02-23T04:00:40;1.63;;;0.73;;
4915;SDS011;70796;52.406;13.230;2024-02-23T04:03:06;2.13;;;1.00;;
4915;SDS011;70796;52.406;13.230;2024-02-23T04:05:32;1.50;;;0.70;;
4915;SDS011;70796;52.406;13.230;2024-02-23T04:07:59;1.03;;;0.70;;
4915;SDS011;70796;52.406;13.230;2024-02-23T04:10:26;2.40;;;1.10;;
4915;SDS011;70796;52.406;13.230;2024-02-23T04:12:52;3.47;;;0.73;;
4915;SDS011;70796;52.406;13.230;2024-02-23T04:15:18;2.73;;;0.70;;
4915;SDS011;70796;52.406;13.230;2024-02-23T04:17:46;1.47;;;0.90;;
4915;SDS011;70796;52.406;13.230;2024-02-23T04:20:13;0.60;;;0.60;;
4915;SDS011;70796;52.406;13.230;2024-02-23T04:22:39;2.13;;;0.90;;
4915;SDS011;70796;52.406;13.230;2024-02-23T04:25:09;0.90;;;0.70;;
4915;SDS011;70796;52.406;13.230;2024-02-23T04:27:37;1.07;;;1.00;;
4915;SDS011;70796;52.406;13.230;2024-02-23T04:30:04;1.03;;;0.80;;
4915;SDS011;70796;52.406;13.230;2024-02-23T04:32:31;1.80;;;0.70;;
4915;SDS011;70796;52.406;13.230;2024-02-23T04:34:57;1.07;;;0.63;;
4915;SDS011;70796;52.406;13.230;2024-02-23T04:37:24;3.40;;;0.90;;
4915;SDS011;70796;52.406;13.230;2024-02-23T04:39:50;1.37;;;0.70;;
4915;SDS011;70796;52.406;13.230;2024-02-23T04:42:17;0.70;;;0.70;;
4915;SDS011;70796;52.406;13.230;2024-02-23T04:44:43;0.60;;;0.60;;
4915;SDS011;70796;52.406;13.230;2024-02-23T04:47:10;1.43;;;0.60;;
4915;SDS011;70796;52.406;13.230;2024-02-23T04:49:36;1.83;;;0.63;;
4915;SDS011;70796;52.406;13.230;2024-02-23T04:52:05;1.23;;;0.77;;
4915;SDS011;70796;52.406;13.230;2024-02-23T04:54:32;1.27;;;0.77;;
4915;SDS011;70796;52.406;13.230;2024-02-23T04:56:59;0.97;;;0.60;;
4915;SDS011;70796;52.406;13.230;2024-02-23T04:59:25;1.00;;;0.60;;
4915;SDS011;70796;52.406;13.230;2024-02-23T05:01:52;0.60;;;0.60;;
4915;SDS011;70796;52.406;13.230;2024-02-23T05:04:18;0.60;;;0.60;;
4915;SDS011;70796;52.406;13.230;2024-02-23T05:06:45;0.70;;;0.70;;
4915;SDS011;70796;52.406;13.230;2024-02-23T05:09:12;0.90;;;0.77;;
4915;SDS011;70796;52.406;13.230;2024-02-23T05:11:39;0.60;;;0.60;;
4915;SDS011;70796;52.406;13.230;2024-02-23T05:14:06;2.80;;;0.70;;
4915;SDS011;70796;52.406;13.230;2024-02-23T05:16:32;4.50;;;0.60;;
4915;SDS011;70796;52.406;13.230;2024-02-23T05:18:59;1.00;;;0.77;;
4915;SDS011;70796;52.406;13.230;2024-02-23T05:21:27;1.37;;;0.73;;
4915;SDS011;70796;52.406;13.230;2024-02-23T05:23:53;1.17;;;0.70;;
4915;SDS011;70796;52.406;13.230;2024-02-23T05:26:20;2.40;;;0.60;;
4915;SDS011;70796;52.406;13.230;2024-02-23T05:28:46;1.13;;;0.70;;
4915;SDS011;70796;52.406;13.230;2024-02-23T05:31:13;1.00;;;0.60;;
4915;SDS011;70796;52.406;13.230;2024-02-23T05:33:39;0.70;;;0.70;;
4915;SDS011;70796;52.406;13.230;2024-02-23T05:36:06;0.60;;;0.60;;
4915;SDS011;70796;52.406;13.230;2024-02-23T05:38:33;1.80;;;0.60;;
4915;SDS011;70796;52.406;13.230;2024-02-23T05:40:59;1.33;;;0.70;;
4915;SDS011;70796;52.406;13.230;2024-02-23T05:43:28;1.53;;;0.70;;
4915;SDS011;70796;52.406;13.230;2024-02-23T05:45:55;0.70;;;0.70;;
4915;SDS011;70796;52.406;13.230;2024-02-23T05:48:23;2.73;;;0.60;;
4915;SDS011;70796;52.406;13.230;2024-02-23T05:50:50;0.90;;;0.70;;
4915;SDS011;70796;52.406;13.230;2024-02-23T05:53:16;2.20;;;0.70;;
4915;SDS011;70796;52.406;13.230;2024-02-23T05:55:42;0.70;;;0.70;;
4915;SDS011;70796;52.406;13.230;2024-02-23T05:58:09;0.60;;;0.60;;
4915;SDS011;70796;52.406;13.230;2024-02-23T06:00:35;0.60;;;0.60;;
4915;SDS011;70796;52.406;13.230;2024-02-23T06:03:02;1.90;;;0.70;;
4915;SDS011;70796;52.406;13.230;2024-02-23T06:05:29;0.70;;;0.60;;
4915;SDS011;70796;52.406;13.230;2024-02-23T06:07:55;0.70;;;0.70;;
4915;SDS011;70796;52.406;13.230;2024-02-23T06:10:21;0.60;;;0.60;;
4915;SDS011;70796;52.406;13.230;2024-02-23T06:12:48;0.97;;;0.53;;
4915;SDS011;70796;52.406;13.230;2024-02-23T06:15:15;0.70;;;0.70;;
4915;SDS011;70796;52.406;13.230;2024-02-23T06:17:41;2.20;;;0.80;;
4915;SDS011;70796;52.406;13.230;2024-02-23T06:20:08;3.20;;;0.60;;
4915;SDS011;70796;52.406;13.230;2024-02-23T06:22:36;0.80;;;0.70;;
4915;SDS011;70796;52.406;13.230;2024-02-23T06:25:03;0.87;;;0.60;;
4915;SDS011;70796;52.406;13.230;2024-02-23T06:27:31;6.00;;;0.70;;
4915;SDS011;70796;52.406;13.230;2024-02-23T06:29:57;0.60;;;0.60;;
4915;SDS011;70796;52.406;13.230;2024-02-23T06:32:23;0.80;;;0.73;;
4915;SDS011;70796;52.406;13.230;2024-02-23T06:34:50;2.03;;;0.70;;
4915;SDS011;70796;52.406;13.230;2024-02-23T06:37:16;2.60;;;0.87;;
4915;SDS011;70796;52.406;13.230;2024-02-23T06:39:42;0.53;;;0.53;;
4915;SDS011;70796;52.406;13.230;2024-02-23T06:42:10;0.70;;;0.70;;
4915;SDS011;70796;52.406;13.230;2024-02-23T06:44:36;0.70;;;0.70;;
4915;SDS011;70796;52.406;13.230;2024-02-23T06:47:02;2.20;;;0.60;;
4915;SDS011;70796;52.406;13.230;2024-02-23T06:49:29;0.67;;;0.67;;
4915;SDS011;70796;52.406;13.230;2024-02-23T06:51:56;0.60;;;0.60;;
4915;SDS011;70796;52.406;13.230;2024-02-23T06:54:22;0.60;;;0.60;;
4915;SDS011;70796;52.406;13.230;2024-02-23T06:56:48;0.87;;;0.70;;
4915;SDS011;70796;52.406;13.230;2024-02-23T06:59:15;0.60;;;0.60;;
4915;SDS011;70796;52.406;13.230;2024-02-23T07:01:50;0.73;;;0.70;;
4915;SDS011;70796;52.406;13.230;2024-02-23T07:04:20;0.63;;;0.63;;
4915;SDS011;70796;52.406;13.230;2024-02-23T07:06:46;1.27;;;0.50;;
4915;SDS011;70796;52.406;13.230;2024-02-23T07:09:13;0.70;;;0.70;;
4915;SDS011;70796;52.406;13.230;2024-02-23T07:11:40;0.60;;;0.60;;
4915;SDS011;70796;52.406;13.230;2024-02-23T07:14:12;1.83;;;0.63;;
4915;SDS011;70796;52.406;13.230;2024-02-23T07:16:40;0.70;;;0.70;;
4915;SDS011;70796;52.406;13.230;2024-02-23T07:19:08;0.70;;;0.70;;
4915;SDS011;70796;52.406;13.230;2024-02-23T07:21:36;0.60;;;0.60;;
4915;SDS011;70796;52.406;13.230;2024-02-23T07:24:05;0.60;;;0.60;;
4915;SDS011;70796;52.406;13.230;2024-02-23T07:26:31;0.90;;;0.60;;
4915;SDS011;70796;52.406;13.230;2024-02-23T07:28:58;0.70;;;0.70;;
4915;SDS011;70796;52.406;13.230;2024-02-23T07:31:25;0.90;;;0.80;;
4915;SDS011;70796;52.406;13.230;2024-02-23T07:33:52;0.70;;;0.70;;
4915;SDS011;70796;52.406;13.230;2024-02-23T07:36:19;0.70;;;0.70;;
4915;SDS011;70796;52.406;13.230;2024-02-23T07:38:45;0.93;;;0.70;;
4915;SDS011;70796;52.406;13.230;2024-02-23T07:41:14;1.43;;;0.80;;
4915;SDS011;70796;52.406;13.230;2024-02-23T07:43:40;0.67;;;0.67;;
4915;SDS011;70796;52.406;13.230;2024-02-23T07:46:07;2.53;;;0.60;;
4915;SDS011;70796;52.406;13.230;2024-02-23T07:48:35;0.60;;;0.60;;
4915;SDS011;70796;52.406;13.230;2024-02-23T07:51:02;0.70;;;0.70;;
4915;SDS011;70796;52.406;13.230;2024-02-23T07:53:29;4.20;;;0.70;;
4915;SDS011;70796;52.406;13.230;2024-02-23T07:55:57;0.60;;;0.60;;
4915;SDS011;70796;52.406;13.230;2024-02-23T07:58:26;1.33;;;0.60;;
4915;SDS011;70796;52.406;13.230;2024-02-23T08:00:56;3.07;;;0.80;;
4915;SDS011;70796;52.406;13.230;2024-02-23T08:03:24;0.87;;;0.70;;
4915;SDS011;70796;52.406;13.230;2024-02-23T08:05:53;1.43;;;0.80;;
4915;SDS011;70796;52.406;13.230;2024-02-23T08:08:21;1.10;;;0.80;;
4915;SDS011;70796;52.406;13.230;2024-02-23T08:10:51;0.70;;;0.70;;
4915;SDS011;70796;52.406;13.230;2024-02-23T08:13:18;0.93;;;0.70;;
4915;SDS011;70796;52.406;13.230;2024-02-23T08:15:47;3.20;;;0.63;;
4915;SDS011;70796;52.406;13.230;2024-02-23T08:18:16;0.80;;;0.80;;
4915;SDS011;70796;52.406;13.230;2024-02-23T08:20:43;1.37;;;0.70;;
4915;SDS011;70796;52.406;13.230;2024-02-23T08:23:12;0.70;;;0.70;;
4915;SDS011;70796;52.406;13.230;2024-02-23T08:25:38;1.57;;;0.70;;
4915;SDS011;70796;52.406;13.230;2024-02-23T08:28:06;2.30;;;0.77;;
4915;SDS011;70796;52.406;13.230;2024-02-23T08:30:33;1.43;;;0.60;;
4915;SDS011;70796;52.406;13.230;2024-02-23T08:32:59;0.70;;;0.70;;
4915;SDS011;70796;52.406;13.230;2024-02-23T08:35:27;0.70;;;0.70;;
4915;SDS011;70796;52.406;13.230;2024-02-23T08:37:54;1.20;;;0.80;;
4915;SDS011;70796;52.406;13.230;2024-02-23T08:40:20;0.73;;;0.60;;
4915;SDS011;70796;52.406;13.230;2024-02-23T08:42:46;0.97;;;0.60;;
4915;SDS011;70796;52.406;13.230;2024-02-23T08:45:14;0.90;;;0.63;;
4915;SDS011;70796;52.406;13.230;2024-02-23T08:47:41;0.83;;;0.63;;
4915;SDS011;70796;52.406;13.230;2024-02-23T08:50:07;1.33;;;0.60;;
4915;SDS011;70796;52.406;13.230;2024-02-23T08:52:34;1.60;;;0.60;;
4915;SDS011;70796;52.406;13.230;2024-02-23T08:55:01;1.53;;;0.90;;
4915;SDS011;70796;52.406;13.230;2024-02-23T08:57:27;1.17;;;0.60;;
4915;SDS011;70796;52.406;13.230;2024-02-23T08:59:54;2.00;;;0.70;;
4915;SDS011;70796;52.406;13.230;2024-02-23T09:02:26;0.60;;;0.60;;
4915;SDS011;70796;52.406;13.230;2024-02-23T09:04:55;0.87;;;0.87;;
4915;SDS011;70796;52.406;13.230;2024-02-23T09:07:23;2.33;;;0.70;;
4915;SDS011;70796;52.406;13.230;2024-02-23T09:09:51;3.07;;;0.60;;
4915;SDS011;70796;52.406;13.230;2024-02-23T09:12:18;0.60;;;0.60;;
4915;SDS011;70796;52.406;13.230;2024-02-23T09:14:45;3.17;;;0.70;;
4915;SDS011;70796;52.406;13.230;2024-02-23T09:17:13;3.57;;;0.80;;
4915;SDS011;70796;52.406;13.230;2024-02-23T09:19:40;1.37;;;0.90;;
4915;SDS011;70796;52.406;13.230;2024-02-23T09:22:07;1.77;;;0.77;;
4915;SDS011;70796;52.406;13.230;2024-02-23T09:24:34;9.30;;;0.70;;
4915;SDS011;70796;52.406;13.230;2024-02-23T09:27:01;0.70;;;0.70;;
4915;SDS011;70796;52.406;13.230;2024-02-23T09:29:29;1.23;;;0.60;;
4915;SDS011;70796;52.406;13.230;2024-02-23T09:31:57;1.50;;;0.90;;
4915;SDS011;70796;52.406;13.230;2024-02-23T09:34:24;0.60;;;0.60;;
4915;SDS011;70796;52.406;13.230;2024-02-23T09:36:51;1.27;;;0.60;;
4915;SDS011;70796;52.406;13.230;2024-02-23T09:39:34;0.93;;;0.70;;
4915;SDS011;70796;52.406;13.230;2024-02-23T09:42:01;0.70;;;0.70;;
4915;SDS011;70796;52.406;13.230;2024-02-23T09:44:31;0.80;;;0.60;;
4915;SDS011;70796;52.406;13.230;2024-02-23T09:47:03;1.17;;;0.70;;
4915;SDS011;70796;52.406;13.230;2024-02-23T09:49:37;0.87;;;0.87;;
4915;SDS011;70796;52.406;13.230;2024-02-23T09:52:08;0.80;;;0.70;;
4915;SDS011;70796;52.406;13.230;2024-02-23T09:54:38;2.80;;;0.80;;
4915;SDS011;70796;52.406;13.230;2024-02-23T09:59:58;2.37;;;0.70;;
4915;SDS011;70796;52.406;13.230;2024-02-23T10:02:25;2.70;;;0.80;;
4915;SDS011;70796;52.406;13.230;2024-02-23T10:04:51;1.17;;;0.70;;
4915;SDS011;70796;52.406;13.230;2024-02-23T10:07:21;6.03;;;0.70;;
4915;SDS011;70796;52.406;13.230;2024-02-23T10:09:48;1.43;;;0.80;;
4915;SDS011;70796;52.406;13.230;2024-02-23T10:12:15;0.87;;;0.60;;
4915;SDS011;70796;52.406;13.230;2024-02-23T10:14:44;0.77;;;0.77;;
4915;SDS011;70796;52.406;13.230;2024-02-23T10:17:11;1.33;;;0.83;;
4915;SDS011;70796;52.406;13.230;2024-02-23T10:19:38;1.17;;;0.70;;
4915;SDS011;70796;52.406;13.230;2024-02-23T10:22:06;1.70;;;0.80;;
4915;SDS011;70796;52.406;13.230;2024-02-23T10:24:32;1.13;;;0.80;;
4915;SDS011;70796;52.406;13.230;2024-02-23T10:27:00;1.03;;;0.90;;
4915;SDS011;70796;52.406;13.230;2024-02-23T10:29:27;2.53;;;0.60;;
4915;SDS011;70796;52.406;13.230;2024-02-23T10:31:54;1.10;;;0.83;;
4915;SDS011;70796;52.406;13.230;2024-02-23T10:34:22;1.73;;;0.60;;
4915;SDS011;70796;52.406;13.230;2024-02-23T10:36:50;1.53;;;0.80;;
4915;SDS011;70796;52.406;13.230;2024-02-23T10:39:18;3.80;;;0.83;;
4915;SDS011;70796;52.406;13.230;2024-02-23T10:41:51;1.17;;;0.70;;
4915;SDS011;70796;52.406;13.230;2024-02-23T10:44:22;0.80;;;0.80;;
4915;SDS011;70796;52.406;13.230;2024-02-23T10:46:49;1.80;;;1.00;;
4915;SDS011;70796;52.406;13.230;2024-02-23T10:49:17;0.87;;;0.70;;
4915;SDS011;70796;52.406;13.230;2024-02-23T10:51:46;2.00;;;0.70;;
4915;SDS011;70796;52.406;13.230;2024-02-23T10:54:15;1.90;;;0.90;;
4915;SDS011;70796;52.406;13.230;2024-02-23T10:56:43;0.80;;;0.80;;
4915;SDS011;70796;52.406;13.230;2024-02-23T10:59:12;1.63;;;0.70;;
4915;SDS011;70796;52.406;13.230;2024-02-23T11:01:38;1.27;;;0.83;;
4915;SDS011;70796;52.406;13.230;2024-02-23T11:04:06;2.03;;;0.70;;
4915;SDS011;70796;52.406;13.230;2024-02-23T11:06:33;0.80;;;0.77;;
4915;SDS011;70796;52.406;13.230;2024-02-23T11:09:06;1.60;;;0.90;;
4915;SDS011;70796;52.406;13.230;2024-02-23T11:11:36;1.10;;;0.90;;
4915;SDS011;70796;52.406;13.230;2024-02-23T11:14:03;0.73;;;0.60;;
4915;SDS011;70796;52.406;13.230;2024-02-23T11:16:33;3.80;;;0.80;;
4915;SDS011;70796;52.406;13.230;2024-02-23T11:19:06;1.10;;;0.80;;
4915;SDS011;70796;52.406;13.230;2024-02-23T11:21:37;3.20;;;1.10;;
4915;SDS011;70796;52.406;13.230;2024-02-23T11:24:05;0.70;;;0.70;;
4915;SDS011;70796;52.406;13.230;2024-02-23T11:26:32;0.70;;;0.70;;
4915;SDS011;70796;52.406;13.230;2024-02-23T11:29:09;0.93;;;0.70;;
4915;SDS011;70796;52.406;13.230;2024-02-23T11:31:37;1.70;;;0.73;;
4915;SDS011;70796;52.406;13.230;2024-02-23T11:34:10;2.50;;;0.73;;
4915;SDS011;70796;52.406;13.230;2024-02-23T11:36:38;0.87;;;0.63;;
4915;SDS011;70796;52.406;13.230;2024-02-23T11:39:04;1.13;;;0.80;;
4915;SDS011;70796;52.406;13.230;2024-02-23T11:41:32;2.17;;;0.80;;
4915;SDS011;70796;52.406;13.230;2024-02-23T11:43:59;2.40;;;0.80;;
4915;SDS011;70796;52.406;13.230;2024-02-23T11:46:25;1.30;;;0.90;;
4915;SDS011;70796;52.406;13.230;2024-02-23T11:48:52;1.67;;;0.80;;
4915;SDS011;70796;52.406;13.230;2024-02-23T11:51:22;2.40;;;0.80;;
4915;SDS011;70796;52.406;13.230;2024-02-23T11:53:50;1.43;;;0.70;;
4915;SDS011;70796;52.406;13.230;2024-02-23T11:56:18;1.27;;;0.80;;
4915;SDS011;70796;52.406;13.230;2024-02-23T11:58:46;2.40;;;0.70;;
4915;SDS011;70796;52.406;13.230;2024-02-23T12:01:13;2.50;;;0.70;;
4915;SDS011;70796;52.406;13.230;2024-02-23T12:03:40;5.60;;;1.10;;
4915;SDS011;70796;52.406;13.230;2024-02-23T12:06:07;2.00;;;0.80;;
4915;SDS011;70796;52.406;13.230;2024-02-23T12:08:34;2.10;;;1.20;;
4915;SDS011;70796;52.406;13.230;2024-02-23T12:11:05;1.37;;;0.90;;
4915;SDS011;70796;52.406;13.230;2024-02-23T12:13:32;1.90;;;0.80;;
4915;SDS011;70796;52.406;13.230;2024-02-23T12:15:59;2.83;;;0.80;;
4915;SDS011;70796;52.406;13.230;2024-02-23T12:18:25;1.37;;;0.90;;
4915;SDS011;70796;52.406;13.230;2024-02-23T12:21:04;2.70;;;0.90;;
4915;SDS011;70796;52.406;13.230;2024-02-23T12:23:40;0.80;;;0.80;;
4915;SDS011;70796;52.406;13.230;2024-02-23T12:26:08;2.30;;;0.80;;
4915;SDS011;70796;52.406;13.230;2024-02-23T12:28:35;2.87;;;0.80;;
4915;SDS011;70796;52.406;13.230;2024-02-23T12:31:02;2.73;;;0.70;;
4915;SDS011;70796;52.406;13.230;2024-02-23T12:33:36;3.80;;;0.80;;
4915;SDS011;70796;52.406;13.230;2024-02-23T12:36:05;1.00;;;0.90;;
4915;SDS011;70796;52.406;13.230;2024-02-23T12:38:33;1.93;;;0.80;;
4915;SDS011;70796;52.406;13.230;2024-02-23T12:41:00;5.13;;;1.00;;
4915;SDS011;70796;52.406;13.230;2024-02-23T12:43:27;2.37;;;0.93;;
4915;SDS011;70796;52.406;13.230;2024-02-23T12:45:54;1.20;;;0.70;;
4915;SDS011;70796;52.406;13.230;2024-02-23T12:48:21;1.63;;;0.80;;
4915;SDS011;70796;52.406;13.230;2024-02-23T12:50:48;2.53;;;0.83;;
4915;SDS011;70796;52.406;13.230;2024-02-23T12:53:34;0.83;;;0.80;;
4915;SDS011;70796;52.406;13.230;2024-02-23T12:58:31;2.80;;;1.03;;
4915;SDS011;70796;52.406;13.230;2024-02-23T13:00:59;3.97;;;1.00;;
4915;SDS011;70796;52.406;13.230;2024-02-23T13:03:25;3.03;;;1.00;;
4915;SDS011;70796;52.406;13.230;2024-02-23T13:05:54;1.63;;;0.80;;
4915;SDS011;70796;52.406;13.230;2024-02-23T13:08:21;1.00;;;0.90;;
4915;SDS011;70796;52.406;13.230;2024-02-23T13:10:50;2.40;;;0.97;;
4915;SDS011;70796;52.406;13.230;2024-02-23T13:13:16;1.73;;;0.90;;
4915;SDS011;70796;52.406;13.230;2024-02-23T13:15:43;1.60;;;0.80;;
4915;SDS011;70796;52.406;13.230;2024-02-23T13:18:10;0.90;;;0.80;;
4915;SDS011;70796;52.406;13.230;2024-02-23T13:20:37;1.60;;;1.37;;
4915;SDS011;70796;52.406;13.230;2024-02-23T13:23:03;3.60;;;1.50;;
4915;SDS011;70796;52.406;13.230;2024-02-23T13:25:31;4.93;;;1.00;;
4915;SDS011;70796;52.406;13.230;2024-02-23T13:27:57;3.23;;;1.00;;
4915;SDS011;70796;52.406;13.230;2024-02-23T13:30:24;2.20;;;1.13;;
4915;SDS011;70796;52.406;13.230;2024-02-23T13:32:52;1.87;;;1.20;;
4915;SDS011;70796;52.406;13.230;2024-02-23T13:35:20;4.90;;;1.10;;
4915;SDS011;70796;52.406;13.230;2024-02-23T13:37:46;4.83;;;0.93;;
4915;SDS011;70796;52.406;13.230;2024-02-23T13:40:13;1.20;;;1.10;;
4915;SDS011;70796;52.406;13.230;2024-02-23T13:42:40;1.50;;;0.90;;
4915;SDS011;70796;52.406;13.230;2024-02-23T13:45:07;4.10;;;1.00;;
4915;SDS011;70796;52.406;13.230;2024-02-23T13:47:35;2.10;;;1.07;;
4915;SDS011;70796;52.406;13.230;2024-02-23T13:50:02;1.30;;;0.80;;
4915;SDS011;70796;52.406;13.230;2024-02-23T13:52:28;1.57;;;1.00;;
4915;SDS011;70796;52.406;13.230;2024-02-23T13:54:55;1.67;;;0.87;;
4915;SDS011;70796;52.406;13.230;2024-02-23T13:57:21;1.80;;;0.90;;
4915;SDS011;70796;52.406;13.230;2024-02-23T13:59:48;3.10;;;1.10;;
4915;SDS011;70796;52.406;13.230;2024-02-23T14:02:15;1.23;;;1.00;;
4915;SDS011;70796;52.406;13.230;2024-02-23T14:04:41;2.07;;;0.90;;
4915;SDS011;70796;52.406;13.230;2024-02-23T14:07:08;1.70;;;0.93;;
4915;SDS011;70796;52.406;13.230;2024-02-23T14:09:37;1.23;;;0.90;;
4915;SDS011;70796;52.406;13.230;2024-02-23T14:12:04;3.50;;;1.10;;
4915;SDS011;70796;52.406;13.230;2024-02-23T14:14:30;1.93;;;1.13;;
4915;SDS011;70796;52.406;13.230;2024-02-23T14:16:57;2.83;;;0.90;;
4915;SDS011;70796;52.406;13.230;2024-02-23T14:19:23;1.23;;;0.87;;
4915;SDS011;70796;52.406;13.230;2024-02-23T14:21:51;3.03;;;1.03;;
4915;SDS011;70796;52.406;13.230;2024-02-23T14:24:18;2.70;;;1.03;;
4915;SDS011;70796;52.406;13.230;2024-02-23T14:26:44;1.17;;;0.97;;
4915;SDS011;70796;52.406;13.230;2024-02-23T14:29:11;2.70;;;0.80;;
4915;SDS011;70796;52.406;13.230;2024-02-23T14:31:37;4.13;;;0.93;;
4915;SDS011;70796;52.406;13.230;2024-02-23T14:34:03;3.20;;;1.00;;
4915;SDS011;70796;52.406;13.230;2024-02-23T14:36:30;3.13;;;0.90;;
4915;SDS011;70796;52.406;13.230;2024-02-23T14:39:00;3.50;;;1.23;;
4915;SDS011;70796;52.406;13.230;2024-02-23T14:41:26;3.10;;;1.03;;
4915;SDS011;70796;52.406;13.230;2024-02-23T14:43:53;2.97;;;0.97;;
4915;SDS011;70796;52.406;13.230;2024-02-23T14:46:20;1.40;;;0.90;;
4915;SDS011;70796;52.406;13.230;2024-02-23T14:48:46;8.00;;;1.37;;
4915;SDS011;70796;52.406;13.230;2024-02-23T14:51:15;3.23;;;1.10;;
4915;SDS011;70796;52.406;13.230;2024-02-23T14:53:41;0.90;;;0.80;;
4915;SDS011;70796;52.406;13.230;2024-02-23T14:56:08;5.20;;;1.03;;
4915;SDS011;70796;52.406;13.230;2024-02-23T14:58:35;1.73;;;0.93;;